createdAt,value
2022-08-17T00:02:26.140Z,4.28
2022-08-17T00:04:54.748Z,4.57
2022-08-17T00:07:22.003Z,4.38
2022-08-17T00:09:48.819Z,4.55
2022-08-17T00:12:42.249Z,4.15
2022-08-17T00:15:05.876Z,4.30
2022-08-17T00:20:04.271Z,4.00
2022-08-17T00:22:35.705Z,4.40
2022-08-17T00:25:12.229Z,4.50
2022-08-17T00:27:39.518Z,4.43
2022-08-17T00:30:10.241Z,4.45
2022-08-17T00:33:12.093Z,4.55
2022-08-17T00:35:33.125Z,4.38
2022-08-17T00:38:00.092Z,4.60
2022-08-17T00:40:27.533Z,4.55
2022-08-17T00:43:20.376Z,5.32
2022-08-17T00:45:48.609Z,4.20
2022-08-17T00:48:29.531Z,4.40
2022-08-17T00:51:00.134Z,4.20
2022-08-17T00:53:29.424Z,4.47
2022-08-17T00:55:58.570Z,4.20
2022-08-17T00:58:36.369Z,4.88
2022-08-17T01:01:05.446Z,4.60
2022-08-17T01:03:33.583Z,4.05
2022-08-17T01:06:02.609Z,4.90
2022-08-17T01:08:31.271Z,4.60
2022-08-17T01:11:05.423Z,4.85
2022-08-17T01:13:41.064Z,4.45
2022-08-17T01:16:20.155Z,4.60
2022-08-17T01:18:50.708Z,4.03
2022-08-17T01:21:29.065Z,4.10
2022-08-17T01:23:56.492Z,4.55
2022-08-17T01:26:23.682Z,4.05
2022-08-17T01:28:54.457Z,4.15
2022-08-17T01:33:49.736Z,4.50
2022-08-17T01:36:16.454Z,3.85
2022-08-17T01:38:43.690Z,4.70
2022-08-17T01:41:14.507Z,4.10
2022-08-17T01:43:51.088Z,4.28
2022-08-17T01:46:27.221Z,4.35
2022-08-17T01:48:56.369Z,5.28
2022-08-17T01:51:25.965Z,4.40
2022-08-17T01:53:58.319Z,4.25
2022-08-17T01:56:26.941Z,4.28
2022-08-17T01:58:54.284Z,4.35
2022-08-17T02:01:25.002Z,4.38
2022-08-17T02:03:56.210Z,5.00
2022-08-17T02:06:28.326Z,4.70
2022-08-17T02:09:03.270Z,4.60
2022-08-17T02:11:33.537Z,4.80
2022-08-17T02:14:03.279Z,4.75
2022-08-17T02:16:37.063Z,4.43
2022-08-17T02:19:10.826Z,4.55
2022-08-17T02:21:38.897Z,4.93
2022-08-17T02:24:08.301Z,4.38
2022-08-17T02:26:35.307Z,4.78
2022-08-17T02:29:04.042Z,4.72
2022-08-17T02:31:31.324Z,5.13
2022-08-17T02:34:03.951Z,5.68
2022-08-17T02:36:34.197Z,5.40
2022-08-17T02:39:03.420Z,4.63
2022-08-17T02:41:30.563Z,4.60
2022-08-17T02:43:57.601Z,5.20
2022-08-17T02:46:24.508Z,5.03
2022-08-17T02:48:51.213Z,4.80
2022-08-17T02:51:18.745Z,5.20
2022-08-17T02:53:45.669Z,4.55
2022-08-17T02:56:12.482Z,4.97
2022-08-17T02:58:39.307Z,4.80
2022-08-17T03:01:08.158Z,4.22
2022-08-17T03:03:36.261Z,4.93
2022-08-17T03:06:04.100Z,5.00
2022-08-17T03:08:31.170Z,4.70
2022-08-17T03:10:57.909Z,4.93
2022-08-17T03:13:24.778Z,4.60
2022-08-17T03:15:51.634Z,4.90
2022-08-17T03:18:25.272Z,5.68
2022-08-17T03:21:01.416Z,4.97
2022-08-17T03:23:29.572Z,5.10
2022-08-17T03:25:58.045Z,5.13
2022-08-17T03:28:25.539Z,5.18
2022-08-17T03:30:52.385Z,4.75
2022-08-17T03:33:20.274Z,5.80
2022-08-17T03:35:47.201Z,5.60
2022-08-17T03:38:15.129Z,5.40
2022-08-17T03:40:57.381Z,4.97
2022-08-17T03:43:30.813Z,4.95
2022-08-17T03:46:28.178Z,5.50
2022-08-17T03:49:24.748Z,5.07
2022-08-17T03:52:11.270Z,5.40
2022-08-17T03:54:57.103Z,5.35
2022-08-17T03:57:24.739Z,5.20
2022-08-17T03:59:52.221Z,5.13
2022-08-17T04:02:29.731Z,5.65
2022-08-17T04:04:57.059Z,5.10
2022-08-17T04:07:28.598Z,4.72
2022-08-17T04:09:55.709Z,5.13
2022-08-17T04:12:24.152Z,5.03
2022-08-17T04:14:53.679Z,5.03
2022-08-17T04:17:26.518Z,5.70
2022-08-17T04:19:54.027Z,5.00
2022-08-17T04:22:32.708Z,5.05
2022-08-17T04:25:15.141Z,4.65
2022-08-17T04:27:42.035Z,4.53
2022-08-17T04:30:09.346Z,4.35
2022-08-17T04:33:04.149Z,4.50
2022-08-17T04:35:37.706Z,4.68
2022-08-17T04:38:05.100Z,4.93
2022-08-17T04:40:50.539Z,4.95
2022-08-17T04:43:20.596Z,4.47
2022-08-17T04:45:56.363Z,4.50
2022-08-17T04:48:35.812Z,4.57
2022-08-17T04:51:07.240Z,5.00
2022-08-17T04:53:34.079Z,4.97
2022-08-17T04:56:01.054Z,4.75
2022-08-17T04:58:28.388Z,4.63
2022-08-17T05:00:55.275Z,5.05
2022-08-17T05:03:22.217Z,4.53
2022-08-17T05:05:51.838Z,5.63
2022-08-17T05:08:20.320Z,4.70
2022-08-17T05:10:47.722Z,5.10
2022-08-17T05:13:18.001Z,5.57
2022-08-17T05:15:49.176Z,5.32
2022-08-17T05:18:17.525Z,4.72
2022-08-17T05:20:45.264Z,4.53
2022-08-17T05:23:14.808Z,4.32
2022-08-17T05:25:46.762Z,4.57
2022-08-17T05:28:17.254Z,4.10
2022-08-17T05:30:46.273Z,3.65
2022-08-17T05:33:25.642Z,4.30
2022-08-17T05:35:54.716Z,3.80
2022-08-17T05:38:23.744Z,3.92
2022-08-17T05:40:51.192Z,3.92
2022-08-17T05:43:30.787Z,4.05
2022-08-17T05:46:13.339Z,3.80
2022-08-17T05:48:46.268Z,3.55
2022-08-17T05:51:26.908Z,3.70
2022-08-17T05:54:23.923Z,3.83
2022-08-17T05:56:56.561Z,3.88
2022-08-17T05:59:45.103Z,3.65
2022-08-17T06:02:23.011Z,3.72
2022-08-17T06:05:11.248Z,3.65
2022-08-17T06:07:41.040Z,3.58
2022-08-17T06:10:25.675Z,3.85
2022-08-17T06:13:15.954Z,3.40
2022-08-17T06:16:32.930Z,3.50
2022-08-17T06:19:01.413Z,3.88
2022-08-17T06:21:34.319Z,3.65
2022-08-17T06:24:21.723Z,4.18
2022-08-17T06:26:50.321Z,4.18
2022-08-17T06:29:27.076Z,4.53
2022-08-17T06:31:53.894Z,4.35
2022-08-17T06:34:20.894Z,4.28
2022-08-17T06:37:21.259Z,3.80
2022-08-17T06:39:50.837Z,3.35
2022-08-17T06:42:54.959Z,3.80
2022-08-17T06:45:43.898Z,3.78
2022-08-17T06:48:13.645Z,4.05
2022-08-17T06:50:47.323Z,4.07
2022-08-17T06:53:23.759Z,3.72
2022-08-17T06:56:08.745Z,3.53
2022-08-17T06:58:38.804Z,3.80
2022-08-17T07:01:16.447Z,3.70
2022-08-17T07:03:55.535Z,3.53
2022-08-17T07:06:26.528Z,4.07
2022-08-17T07:09:01.294Z,3.67
2022-08-17T07:11:43.645Z,3.90
2022-08-17T07:14:44.666Z,4.00
2022-08-17T07:17:15.185Z,4.45
2022-08-17T07:19:45.519Z,4.47
2022-08-17T07:22:18.268Z,4.20
2022-08-17T07:24:59.606Z,4.25
2022-08-17T07:29:59.068Z,4.20
2022-08-17T07:32:53.850Z,3.70
2022-08-17T07:35:37.968Z,4.45
2022-08-17T07:38:24.168Z,4.63
2022-08-17T07:41:03.015Z,4.53
2022-08-17T07:43:39.245Z,4.65
2022-08-17T07:46:46.113Z,4.25
2022-08-17T07:49:12.816Z,4.70
2022-08-17T07:51:45.823Z,4.85
2022-08-17T07:54:14.794Z,4.75
2022-08-17T07:56:44.081Z,4.90
2022-08-17T07:59:24.176Z,4.70
2022-08-17T08:01:58.055Z,4.95
2022-08-17T08:05:00.135Z,5.00
2022-08-17T08:07:21.345Z,4.90
2022-08-17T08:10:11.780Z,4.88
2022-08-17T08:12:45.499Z,4.90
2022-08-17T08:15:33.308Z,4.90
2022-08-17T08:18:04.001Z,4.90
2022-08-17T08:20:52.674Z,5.40
2022-08-17T08:23:50.746Z,4.55
2022-08-17T08:26:23.692Z,4.85
2022-08-17T08:29:12.567Z,4.40
2022-08-17T08:31:51.453Z,5.00
2022-08-17T08:34:54.748Z,5.57
2022-08-17T08:37:42.870Z,5.00
2022-08-17T08:40:15.761Z,5.40
2022-08-17T08:42:56.500Z,5.22
2022-08-17T08:45:32.950Z,5.35
2022-08-17T08:48:55.794Z,5.07
2022-08-17T08:51:35.874Z,5.15
2022-08-17T08:54:14.653Z,5.38
2022-08-17T08:57:23.095Z,5.22
2022-08-17T09:00:08.162Z,5.38
2022-08-17T09:02:40.947Z,4.78
2022-08-17T09:05:44.525Z,5.20
2022-08-17T09:08:57.157Z,4.93
2022-08-17T09:12:01.363Z,5.20
2022-08-17T09:14:43.218Z,4.95
2022-08-17T09:17:31.763Z,4.80
2022-08-17T09:20:28.286Z,5.15
2022-08-17T09:23:15.381Z,4.97
2022-08-17T09:26:11.593Z,5.07
2022-08-17T09:28:42.687Z,4.57
2022-08-17T09:31:20.313Z,4.80
2022-08-17T09:33:49.074Z,5.28
2022-08-17T09:36:23.187Z,5.00
2022-08-17T09:39:02.843Z,5.10
2022-08-17T09:41:48.966Z,4.82
2022-08-17T09:44:23.679Z,4.32
2022-08-17T09:47:00.255Z,4.60
2022-08-17T09:49:56.036Z,4.68
2022-08-17T09:52:28.811Z,4.28
2022-08-17T09:54:57.875Z,4.20
2022-08-17T09:58:11.382Z,4.65
2022-08-17T10:00:46.900Z,3.90
2022-08-17T10:03:49.135Z,4.32
2022-08-17T10:06:24.508Z,3.92
2022-08-17T10:08:58.512Z,4.18
2022-08-17T10:12:00.714Z,3.85
2022-08-17T10:14:53.620Z,4.20
2022-08-17T10:17:21.942Z,3.90
2022-08-17T10:20:11.865Z,3.83
2022-08-17T10:23:04.583Z,3.70
2022-08-17T10:25:55.768Z,3.42
2022-08-17T10:28:29.696Z,3.50
2022-08-17T10:31:30.938Z,3.67
2022-08-17T10:36:55.349Z,3.33
2022-08-17T10:39:52.739Z,3.50
2022-08-17T10:42:36.178Z,3.75
2022-08-17T10:45:14.540Z,3.22
2022-08-17T10:48:07.052Z,2.92
2022-08-17T10:50:58.317Z,3.60
2022-08-17T10:53:43.690Z,3.42
2022-08-17T10:56:13.582Z,3.55
2022-08-17T10:58:59.895Z,3.30
2022-08-17T11:01:32.924Z,3.53
2022-08-17T11:04:18.542Z,3.28
2022-08-17T11:07:02.433Z,3.55
2022-08-17T11:10:01.031Z,3.35
2022-08-17T11:13:06.733Z,3.25
2022-08-17T11:15:58.834Z,3.20
2022-08-17T11:18:52.624Z,3.25
2022-08-17T11:21:39.854Z,3.13
2022-08-17T11:24:28.509Z,3.58
2022-08-17T11:27:23.552Z,3.92
2022-08-17T11:30:01.895Z,3.03
2022-08-17T11:32:47.500Z,3.85
2022-08-17T11:35:21.129Z,3.30
2022-08-17T11:37:59.066Z,3.00
2022-08-17T11:41:03.454Z,3.38
2022-08-17T11:43:55.654Z,3.33
2022-08-17T11:47:08.888Z,3.17
2022-08-17T11:50:00.664Z,3.67
2022-08-17T11:52:47.378Z,3.10
2022-08-17T11:55:44.739Z,3.05
2022-08-17T11:58:30.098Z,2.90
2022-08-17T12:01:01.105Z,2.97
2022-08-17T12:03:31.822Z,2.97
2022-08-17T12:06:19.509Z,3.30
2022-08-17T12:08:55.839Z,3.20
2022-08-17T12:11:57.775Z,3.35
2022-08-17T12:14:45.445Z,3.90
2022-08-17T12:17:40.555Z,2.92
2022-08-17T12:20:31.297Z,3.08
2022-08-17T12:23:12.037Z,2.83
2022-08-17T12:25:58.388Z,3.08
2022-08-17T12:28:35.001Z,2.92
2022-08-17T12:31:04.510Z,2.65
2022-08-17T12:33:31.948Z,3.05
2022-08-17T12:36:03.153Z,2.85
2022-08-17T12:38:34.760Z,2.85
2022-08-17T12:41:24.769Z,2.75
2022-08-17T12:44:23.267Z,2.88
2022-08-17T12:47:07.633Z,2.72
2022-08-17T12:49:38.147Z,2.90
2022-08-17T12:52:07.307Z,2.70
2022-08-17T12:54:54.463Z,2.80
2022-08-17T12:57:33.848Z,2.80
2022-08-17T13:00:09.522Z,2.78
2022-08-17T13:02:47.040Z,2.60
2022-08-17T13:05:27.691Z,2.63
2022-08-17T13:07:57.293Z,2.67
2022-08-17T13:10:33.584Z,2.60
2022-08-17T13:13:17.666Z,2.60
2022-08-17T13:15:54.719Z,2.92
2022-08-17T13:18:38.863Z,2.60
2022-08-17T13:21:27.480Z,2.50
2022-08-17T13:24:03.615Z,2.80
2022-08-17T13:26:51.480Z,2.72
2022-08-17T13:29:38.757Z,2.67
2022-08-17T13:32:13.020Z,2.80
2022-08-17T13:35:08.284Z,2.63
2022-08-17T13:37:34.757Z,2.38
2022-08-17T13:42:52.966Z,2.55
2022-08-17T13:45:35.176Z,2.35
2022-08-17T13:48:15.889Z,2.60
2022-08-17T13:50:56.987Z,2.42
2022-08-17T13:56:37.621Z,2.30
2022-08-17T13:58:57.783Z,2.67
2022-08-17T14:01:41.984Z,2.30
2022-08-17T14:04:21.830Z,2.47
2022-08-17T14:07:23.108Z,2.97
2022-08-17T14:09:59.267Z,2.60
2022-08-17T14:12:28.595Z,2.60
2022-08-17T14:14:56.529Z,2.60
2022-08-17T14:17:26.961Z,2.63
2022-08-17T14:19:53.783Z,2.40
2022-08-17T14:22:33.224Z,2.50
2022-08-17T14:25:01.750Z,2.70
2022-08-17T14:27:31.799Z,2.35
2022-08-17T14:29:58.636Z,2.47
2022-08-17T14:32:29.613Z,2.55
2022-08-17T14:34:57.922Z,2.50
2022-08-17T14:37:28.237Z,2.38
2022-08-17T14:40:00.337Z,2.60
2022-08-17T14:42:32.873Z,2.60
2022-08-17T14:45:06.220Z,2.70
2022-08-17T14:47:53.818Z,2.30
2022-08-17T14:50:23.223Z,2.45
2022-08-17T14:52:57.932Z,2.42
2022-08-17T14:55:25.531Z,2.63
2022-08-17T14:57:52.857Z,2.42
2022-08-17T15:00:22.787Z,2.90
2022-08-17T15:03:00.433Z,2.40
2022-08-17T15:05:31.868Z,2.60
2022-08-17T15:08:01.324Z,2.42
2022-08-17T15:10:36.959Z,2.70
2022-08-17T15:13:15.952Z,2.63
2022-08-17T15:15:43.702Z,2.55
2022-08-17T15:18:14.381Z,2.65
2022-08-17T15:20:42.130Z,2.08
2022-08-17T15:23:13.194Z,2.22
2022-08-17T15:25:40.672Z,2.78
2022-08-17T15:28:12.522Z,2.45
2022-08-17T15:30:45.015Z,2.60
2022-08-17T15:33:18.281Z,2.75
2022-08-17T15:35:53.613Z,2.50
2022-08-17T15:38:21.059Z,2.50
2022-08-17T15:40:50.894Z,3.05
2022-08-17T15:43:27.940Z,2.28
2022-08-17T15:46:00.963Z,2.65
2022-08-17T15:48:57.135Z,2.50
2022-08-17T15:51:33.059Z,2.70
2022-08-17T15:54:19.377Z,2.67
2022-08-17T15:56:50.857Z,2.30
2022-08-17T15:59:17.839Z,2.60
2022-08-17T16:03:14.688Z,2.78
2022-08-17T16:04:31.928Z,4.18
2022-08-17T16:06:59.670Z,3.10
2022-08-17T16:09:26.484Z,3.15
2022-08-17T16:11:55.306Z,2.88
2022-08-17T16:14:24.088Z,2.67
2022-08-17T16:16:51.688Z,2.90
2022-08-17T16:19:18.485Z,2.67
2022-08-17T16:21:45.284Z,2.60
2022-08-17T16:24:12.849Z,2.83
2022-08-17T16:26:42.486Z,3.00
2022-08-17T16:29:09.819Z,2.45
2022-08-17T16:31:37.750Z,2.58
2022-08-17T16:34:16.913Z,2.88
2022-08-17T16:36:51.786Z,2.58
2022-08-17T16:39:29.426Z,2.80
2022-08-17T16:41:57.309Z,2.75
2022-08-17T16:44:25.881Z,2.60
2022-08-17T16:46:52.731Z,2.70
2022-08-17T16:49:31.572Z,2.88
2022-08-17T16:52:03.778Z,2.83
2022-08-17T16:54:30.709Z,2.50
2022-08-17T16:56:57.436Z,2.75
2022-08-17T16:59:39.402Z,3.05
2022-08-17T17:02:13.278Z,2.35
2022-08-17T17:04:49.375Z,2.58
2022-08-17T17:07:40.559Z,3.00
2022-08-17T17:10:15.172Z,2.72
2022-08-17T17:13:01.985Z,2.70
2022-08-17T17:15:43.431Z,2.50
2022-08-17T17:18:12.705Z,2.58
2022-08-17T17:21:00.436Z,2.35
2022-08-17T17:23:48.584Z,2.65
2022-08-17T17:26:44.940Z,2.72
2022-08-17T17:29:47.891Z,2.55
2022-08-17T17:32:39.887Z,2.53
2022-08-17T17:35:25.472Z,2.70
2022-08-17T17:37:57.621Z,2.58
2022-08-17T17:40:43.350Z,2.30
2022-08-17T17:43:37.846Z,2.50
2022-08-17T17:46:27.219Z,2.10
2022-08-17T17:48:57.057Z,3.10
2022-08-17T17:52:06.625Z,3.17
2022-08-17T17:54:56.265Z,3.20
2022-08-17T17:57:38.765Z,3.58
2022-08-17T18:00:22.435Z,3.00
2022-08-17T18:03:21.539Z,3.08
2022-08-17T18:06:00.613Z,3.22
2022-08-17T18:08:33.990Z,2.70
2022-08-17T18:11:35.227Z,2.90
2022-08-17T18:14:20.292Z,3.40
2022-08-17T18:16:56.436Z,3.10
2022-08-17T18:19:26.678Z,3.00
2022-08-17T18:22:06.813Z,3.40
2022-08-17T18:24:40.145Z,3.08
2022-08-17T18:27:25.654Z,3.03
2022-08-17T18:29:55.971Z,2.80
2022-08-17T18:32:22.858Z,3.22
2022-08-17T18:35:09.845Z,3.45
2022-08-17T18:38:20.041Z,3.20
2022-08-17T18:40:58.205Z,3.13
2022-08-17T18:43:44.161Z,2.85
2022-08-17T18:46:28.575Z,2.97
2022-08-17T18:49:02.961Z,2.90
2022-08-17T18:51:42.755Z,2.83
2022-08-17T18:54:19.162Z,3.72
2022-08-17T18:56:52.758Z,5.47
2022-08-17T18:59:52.133Z,7.68
2022-08-17T19:02:44.734Z,4.55
2022-08-17T19:05:35.743Z,4.55
2022-08-17T19:08:17.897Z,5.53
2022-08-17T19:10:47.449Z,7.32
2022-08-17T19:13:24.923Z,9.05
2022-08-17T19:16:14.945Z,5.25
2022-08-17T19:19:01.927Z,4.57
2022-08-17T19:21:42.934Z,5.60
2022-08-17T19:24:23.128Z,4.43
2022-08-17T19:27:00.538Z,3.80
2022-08-17T19:29:39.121Z,3.63
2022-08-17T19:32:10.872Z,3.70
2022-08-17T19:34:39.347Z,3.70
2022-08-17T19:37:17.603Z,3.95
2022-08-17T19:40:35.157Z,3.55
2022-08-17T19:43:06.565Z,3.92
2022-08-17T19:45:56.193Z,3.72
2022-08-17T19:49:16.015Z,3.25
2022-08-17T19:52:44.366Z,3.63
2022-08-17T19:55:48.390Z,4.20
2022-08-17T19:58:46.872Z,3.70
2022-08-17T20:01:21.283Z,3.80
2022-08-17T20:03:58.107Z,4.00
2022-08-17T20:06:28.999Z,4.32
2022-08-17T20:09:15.314Z,3.92
2022-08-17T20:11:54.820Z,3.60
2022-08-17T20:14:28.417Z,3.47
2022-08-17T20:16:59.295Z,3.25
2022-08-17T20:19:49.919Z,3.67
2022-08-17T20:22:52.085Z,3.78
2022-08-17T20:25:30.934Z,3.95
2022-08-17T20:28:17.266Z,3.85
2022-08-17T20:30:44.313Z,3.63
2022-08-17T20:33:34.171Z,3.70
2022-08-17T20:36:19.719Z,3.55
2022-08-17T20:38:55.439Z,4.10
2022-08-17T20:41:24.088Z,3.67
2022-08-17T20:44:03.421Z,3.55
2022-08-17T20:46:36.229Z,3.90
2022-08-17T20:49:08.964Z,3.42
2022-08-17T20:52:07.820Z,4.00
2022-08-17T20:55:03.010Z,4.20
2022-08-17T20:57:35.796Z,4.07
2022-08-17T21:00:25.296Z,4.88
2022-08-17T21:03:24.471Z,3.55
2022-08-17T21:06:00.316Z,4.05
2022-08-17T21:08:29.753Z,3.70
2022-08-17T21:10:58.427Z,4.15
2022-08-17T21:13:40.804Z,4.00
2022-08-17T21:16:24.410Z,4.57
2022-08-17T21:19:24.473Z,4.63
2022-08-17T21:22:12.791Z,4.78
2022-08-17T21:24:42.619Z,4.72
2022-08-17T21:27:50.092Z,5.10
2022-08-17T21:30:29.019Z,4.80
2022-08-17T21:33:17.361Z,4.70
2022-08-17T21:36:17.286Z,4.80
2022-08-17T21:38:57.406Z,4.80
2022-08-17T21:41:34.892Z,4.35
2022-08-17T21:44:18.172Z,4.13
2022-08-17T21:46:51.752Z,4.05
2022-08-17T21:49:25.290Z,3.97
2022-08-17T21:51:55.125Z,4.20
2022-08-17T21:54:38.859Z,4.20
2022-08-17T21:57:14.899Z,3.55
2022-08-17T21:59:44.198Z,3.83
2022-08-17T22:02:24.780Z,4.15
2022-08-17T22:05:06.760Z,4.65
2022-08-17T22:08:18.297Z,4.60
2022-08-17T22:10:48.969Z,4.82
2022-08-17T22:13:23.439Z,5.55
2022-08-17T22:16:15.724Z,5.30
2022-08-17T22:18:57.998Z,5.35
2022-08-17T22:21:25.497Z,5.60
2022-08-17T22:24:06.809Z,5.85
2022-08-17T22:27:00.108Z,5.57
2022-08-17T22:29:58.065Z,5.30
2022-08-17T22:32:41.940Z,5.45
2022-08-17T22:35:32.803Z,5.60
2022-08-17T22:38:18.374Z,5.40
2022-08-17T22:40:51.153Z,5.40
2022-08-17T22:43:26.008Z,5.90
2022-08-17T22:45:56.099Z,5.35
2022-08-17T22:48:27.221Z,5.10
2022-08-17T22:51:14.662Z,5.18
2022-08-17T22:54:12.807Z,5.90
2022-08-17T22:57:06.776Z,5.70
2022-08-17T22:59:46.465Z,6.57
2022-08-17T23:02:19.617Z,5.65
2022-08-17T23:04:53.135Z,5.55
2022-08-17T23:07:22.977Z,6.13
2022-08-17T23:09:51.862Z,6.13
2022-08-17T23:12:24.061Z,5.68
2022-08-17T23:14:58.566Z,5.88
2022-08-17T23:17:25.255Z,5.65
2022-08-17T23:19:52.163Z,5.72
2022-08-17T23:22:18.915Z,6.65
2022-08-17T23:24:49.069Z,5.78
2022-08-17T23:27:17.747Z,6.47
2022-08-17T23:29:45.192Z,6.00
2022-08-17T23:32:15.057Z,6.30
2022-08-17T23:34:44.304Z,5.57
2022-08-17T23:37:12.049Z,6.57
2022-08-17T23:39:39.956Z,6.95
2022-08-17T23:42:09.162Z,6.32
2022-08-17T23:44:37.761Z,5.90
2022-08-17T23:47:05.721Z,6.40
2022-08-17T23:49:32.558Z,6.35
2022-08-17T23:52:01.459Z,6.30
2022-08-17T23:54:43.722Z,6.13
2022-08-17T23:57:12.905Z,6.00
2022-08-17T23:59:40.453Z,6.05
